Time,TemperatureF,DewpointF,PressureIn,WindDirection,WindDirectionDegrees,WindSpeedMPH,WindSpeedGustMPH,Humidity,HourlyPrecipIn,Conditions,Clouds,dailyrainin,SoftwareType,DateUTC
2013-07-04 00:01:00,73.0,34.1,29.44,West,270,12.3,12.3,24,0.00,,---,0.00,VWS V14.01,2013-07-04 05:01:00,
2013-07-04 00:06:00,72.7,33.8,29.44,West,270,12.3,12.3,24,0.00,,---,0.00,VWS V14.01,2013-07-04 05:06:00,
2013-07-04 00:15:00,72.1,34.4,29.44,West,270,12.3,12.3,25,0.00,,---,0.00,VWS V14.01,2013-07-04 05:15:00,
2013-07-04 00:20:00,71.4,35.7,29.44,West,270,12.3,12.3,27,0.00,,---,0.00,VWS V14.01,2013-07-04 05:20:00,
2013-07-04 00:27:00,70.7,36.0,29.44,West,270,12.3,12.3,28,0.00,,---,0.00,VWS V14.01,2013-07-04 05:27:00,
2013-07-04 00:32:00,70.2,36.5,29.47,West,270,12.3,12.3,29,0.00,,---,0.00,VWS V14.01,2013-07-04 05:32:00,
2013-07-04 00:37:00,69.4,35.8,29.47,West,270,12.3,12.3,29,0.00,,---,0.00,VWS V14.01,2013-07-04 05:37:00,
2013-07-04 00:42:00,68.9,37.8,29.47,West,270,12.3,12.3,32,0.00,,---,0.00,VWS V14.01,2013-07-04 05:42:00,
2013-07-04 00:48:00,68.0,37.8,29.41,West,270,12.3,12.3,33,0.00,,---,0.00,VWS V14.01,2013-07-04 05:48:00,
2013-07-04 00:53:00,67.6,38.3,29.41,West,270,12.3,12.3,34,0.00,,---,0.00,VWS V14.01,2013-07-04 05:53:00,
2013-07-04 00:58:00,67.3,37.2,29.41,West,270,12.3,12.3,33,0.00,,---,0.00,VWS V14.01,2013-07-04 05:58:00,
2013-07-04 01:03:00,66.9,37.7,29.41,West,270,12.3,12.3,34,0.00,,---,0.00,VWS V14.01,2013-07-04 06:03:00,
2013-07-04 01:08:00,66.4,37.9,29.41,West,270,12.3,12.3,35,0.00,,---,0.00,VWS V14.01,2013-07-04 06:08:00,
2013-07-04 01:13:00,65.8,38.9,29.41,West,270,12.3,12.3,37,0.00,,---,0.00,VWS V14.01,2013-07-04 06:13:00,
2013-07-04 01:18:00,65.8,37.5,29.44,West,270,12.3,12.3,35,0.00,,---,0.00,VWS V14.01,2013-07-04 06:18:00,
2013-07-04 01:23:00,65.5,37.8,29.44,West,270,12.3,12.3,36,0.00,,---,0.00,VWS V14.01,2013-07-04 06:23:00,
2013-07-04 01:28:00,65.3,37.7,29.44,West,270,12.3,12.3,36,0.00,,---,0.00,VWS V14.01,2013-07-04 06:28:00,
2013-07-04 01:33:00,64.9,38.8,29.41,West,270,12.3,12.3,38,0.00,,---,0.00,VWS V14.01,2013-07-04 06:33:00,
2013-07-04 01:38:00,64.6,37.8,29.41,West,270,12.3,12.3,37,0.00,,---,0.00,VWS V14.01,2013-07-04 06:38:00,
2013-07-04 01:43:00,64.6,37.8,29.41,West,270,12.3,12.3,37,0.00,,---,0.00,VWS V14.01,2013-07-04 06:43:00,
2013-07-04 01:48:00,64.2,38.1,29.41,West,270,12.3,12.3,38,0.00,,---,0.00,VWS V14.01,2013-07-04 06:48:00,
2013-07-04 01:53:00,64.2,38.1,29.41,West,270,12.3,12.3,38,0.00,,---,0.00,VWS V14.01,2013-07-04 06:53:00,
2013-07-04 01:58:00,64.2,38.1,29.41,West,270,12.3,12.3,38,0.00,,---,0.00,VWS V14.01,2013-07-04 06:58:00,
2013-07-04 02:03:00,64.2,38.8,29.44,West,270,12.3,12.3,39,0.00,,---,0.00,VWS V14.01,2013-07-04 07:03:00,
2013-07-04 02:08:00,64.0,39.9,29.44,West,270,12.3,12.3,41,0.00,,---,0.00,VWS V14.01,2013-07-04 07:08:00,
2013-07-04 02:13:00,63.9,39.1,29.44,West,270,12.3,12.3,40,0.00,,---,0.00,VWS V14.01,2013-07-04 07:13:00,
2013-07-04 02:18:00,63.7,40.2,29.44,West,270,12.3,12.3,42,0.00,,---,0.00,VWS V14.01,2013-07-04 07:18:00,
2013-07-04 02:23:00,63.5,38.8,29.44,West,270,12.3,12.3,40,0.00,,---,0.00,VWS V14.01,2013-07-04 07:23:00,
2013-07-04 02:28:00,63.3,40.5,29.44,West,270,12.3,12.3,43,0.00,,---,0.00,VWS V14.01,2013-07-04 07:28:00,
2013-07-04 02:33:00,63.1,39.1,29.44,West,270,12.3,12.3,41,0.00,,---,0.00,VWS V14.01,2013-07-04 07:33:00,
2013-07-04 02:38:00,63.0,40.7,29.44,West,270,12.3,12.3,44,0.00,,---,0.00,VWS V14.01,2013-07-04 07:38:00,
2013-07-04 02:43:00,62.8,41.2,29.44,West,270,12.3,12.3,45,0.00,,---,0.00,VWS V14.01,2013-07-04 07:43:00,
2013-07-04 02:48:00,62.6,39.8,29.44,West,270,12.3,12.3,43,0.00,,---,0.00,VWS V14.01,2013-07-04 07:48:00,
2013-07-04 02:53:00,62.4,40.8,29.44,West,270,12.3,12.3,45,0.00,,---,0.00,VWS V14.01,2013-07-04 07:53:00,
2013-07-04 02:58:00,62.1,39.9,29.44,West,270,12.3,12.3,44,0.00,,---,0.00,VWS V14.01,2013-07-04 07:58:00,
2013-07-04 03:03:00,62.1,41.6,29.44,West,270,12.3,12.3,47,0.00,,---,0.00,VWS V14.01,2013-07-04 08:03:00,
2013-07-04 03:08:00,61.9,42.0,29.44,West,270,12.3,12.3,48,0.00,,---,0.00,VWS V14.01,2013-07-04 08:08:00,
2013-07-04 03:13:00,61.5,42.7,29.44,West,270,12.3,12.3,50,0.00,,---,0.00,VWS V14.01,2013-07-04 08:13:00,
2013-07-04 03:18:00,61.3,42.6,29.44,West,270,12.3,12.3,50,0.00,,---,0.00,VWS V14.01,2013-07-04 08:18:00,
2013-07-04 03:23:00,61.2,42.4,29.44,West,270,12.3,12.3,50,0.00,,---,0.00,VWS V14.01,2013-07-04 08:23:00,
2013-07-04 03:28:00,60.8,42.1,29.44,West,270,12.3,12.3,50,0.00,,---,0.00,VWS V14.01,2013-07-04 08:28:00,
2013-07-04 03:33:00,60.8,41.0,29.44,West,270,12.3,12.3,48,0.00,,---,0.00,VWS V14.01,2013-07-04 08:33:00,
2013-07-04 03:38:00,60.6,42.4,29.44,West,270,12.3,12.3,51,0.00,,---,0.00,VWS V14.01,2013-07-04 08:38:00,
2013-07-04 03:44:00,60.6,42.9,29.44,West,270,12.3,12.3,52,0.00,,---,0.00,VWS V14.01,2013-07-04 08:44:00,
2013-07-04 03:49:00,60.4,41.7,29.47,West,270,12.3,12.3,50,0.00,,---,0.00,VWS V14.01,2013-07-04 08:49:00,
2013-07-04 03:54:00,60.4,41.2,29.47,West,270,12.3,12.3,49,0.00,,---,0.00,VWS V14.01,2013-07-04 08:54:00,
2013-07-04 03:59:00,60.3,42.1,29.47,West,270,12.3,12.3,51,0.00,,---,0.00,VWS V14.01,2013-07-04 08:59:00,
2013-07-04 04:04:00,60.3,41.6,29.44,West,270,12.3,12.3,50,0.00,,---,0.00,VWS V14.01,2013-07-04 09:04:00,
2013-07-04 04:09:00,60.3,41.6,29.44,West,270,12.3,12.3,50,0.00,,---,0.00,VWS V14.01,2013-07-04 09:09:00,
2013-07-04 04:14:00,60.3,42.1,29.44,West,270,12.3,12.3,51,0.00,,---,0.00,VWS V14.01,2013-07-04 09:14:00,
2013-07-04 04:19:00,60.3,43.1,29.44,West,270,12.3,12.3,53,0.00,,---,0.00,VWS V14.01,2013-07-04 09:19:00,
2013-07-04 04:24:00,60.1,44.3,29.44,West,270,12.3,12.3,56,0.00,,---,0.00,VWS V14.01,2013-07-04 09:24:00,
2013-07-04 04:29:00,59.9,43.7,29.44,West,270,12.3,12.3,55,0.00,,---,0.00,VWS V14.01,2013-07-04 09:29:00,
2013-07-04 04:34:00,59.9,43.2,29.44,West,270,12.3,12.3,54,0.00,,---,0.00,VWS V14.01,2013-07-04 09:34:00,
2013-07-04 04:39:00,59.7,43.1,29.44,West,270,12.3,12.3,54,0.00,,---,0.00,VWS V14.01,2013-07-04 09:39:00,
2013-07-04 04:44:00,59.5,44.8,29.44,West,270,12.3,12.3,58,0.00,,---,0.00,VWS V14.01,2013-07-04 09:44:00,
2013-07-04 04:49:00,59.4,45.0,29.44,West,270,12.3,12.3,59,0.00,,---,0.00,VWS V14.01,2013-07-04 09:49:00,
2013-07-04 04:54:00,59.2,43.5,29.44,West,270,12.3,12.3,56,0.00,,---,0.00,VWS V14.01,2013-07-04 09:54:00,
2013-07-04 04:59:00,59.2,44.9,29.44,West,270,12.3,12.3,59,0.00,,---,0.00,VWS V14.01,2013-07-04 09:59:00,
2013-07-04 05:04:00,59.0,45.2,29.44,West,270,12.3,12.3,60,0.00,,---,0.00,VWS V14.01,2013-07-04 10:04:00,
2013-07-04 05:09:00,58.8,45.0,29.44,West,270,12.3,12.3,60,0.00,,---,0.00,VWS V14.01,2013-07-04 10:09:00,
2013-07-04 05:14:00,58.8,44.5,29.44,West,270,12.3,12.3,59,0.00,,---,0.00,VWS V14.01,2013-07-04 10:14:00,
2013-07-04 05:19:00,58.8,46.3,29.44,West,270,12.3,12.3,63,0.00,,---,0.00,VWS V14.01,2013-07-04 10:19:00,
2013-07-04 05:24:00,58.6,44.8,29.44,West,270,12.3,12.3,60,0.00,,---,0.00,VWS V14.01,2013-07-04 10:24:00,
2013-07-04 05:29:00,58.8,45.0,29.44,West,270,12.3,12.3,60,0.00,,---,0.00,VWS V14.01,2013-07-04 10:29:00,
2013-07-04 05:34:00,58.8,45.8,29.44,West,270,12.3,12.3,62,0.00,,---,0.00,VWS V14.01,2013-07-04 10:34:00,
2013-07-04 05:39:00,58.8,45.4,29.44,West,270,12.3,12.3,61,0.00,,---,0.00,VWS V14.01,2013-07-04 10:39:00,
2013-07-04 05:44:00,58.8,46.3,29.41,West,270,12.3,12.3,63,0.00,,---,0.00,VWS V14.01,2013-07-04 10:44:00,
2013-07-04 05:49:00,58.6,45.7,29.41,West,270,12.3,12.3,62,0.00,,---,0.00,VWS V14.01,2013-07-04 10:49:00,
2013-07-04 05:54:00,58.6,45.2,29.41,West,270,12.3,12.3,61,0.00,,---,0.00,VWS V14.01,2013-07-04 10:54:00,
2013-07-04 05:59:00,58.5,46.3,29.41,West,270,12.3,12.3,64,0.00,,---,0.00,VWS V14.01,2013-07-04 10:59:00,
2013-07-04 06:04:00,58.5,46.3,29.44,West,270,12.3,12.3,64,0.00,,---,0.00,VWS V14.01,2013-07-04 11:04:00,
2013-07-04 06:09:00,58.3,45.8,29.44,West,270,12.3,12.3,63,0.00,,---,0.00,VWS V14.01,2013-07-04 11:09:00,
2013-07-04 06:15:00,58.1,46.4,29.44,West,270,12.3,12.3,65,0.00,,---,0.00,VWS V14.01,2013-07-04 11:15:00,
2013-07-04 06:20:00,58.1,47.6,29.44,West,270,12.3,12.3,68,0.00,,---,0.00,VWS V14.01,2013-07-04 11:20:00,
2013-07-04 06:25:00,57.9,48.2,29.44,West,270,12.3,12.3,70,0.00,,---,0.00,VWS V14.01,2013-07-04 11:25:00,
2013-07-04 06:30:00,57.9,48.2,29.41,West,270,12.3,12.3,70,0.00,,---,0.00,VWS V14.01,2013-07-04 11:30:00,
2013-07-04 06:35:00,57.7,48.0,29.41,West,270,12.3,12.3,70,0.00,,---,0.00,VWS V14.01,2013-07-04 11:35:00,
2013-07-04 06:40:00,57.7,48.0,29.41,West,270,12.3,12.3,70,0.00,,---,0.00,VWS V14.01,2013-07-04 11:40:00,
2013-07-04 06:45:00,57.9,47.8,29.41,West,270,12.3,12.3,69,0.00,,---,0.00,VWS V14.01,2013-07-04 11:45:00,
2013-07-04 06:50:00,58.3,49.7,29.41,West,270,12.3,12.3,73,0.00,,---,0.00,VWS V14.01,2013-07-04 11:50:00,
2013-07-04 06:55:00,58.3,49.7,29.41,West,270,12.3,12.3,73,0.00,,---,0.00,VWS V14.01,2013-07-04 11:55:00,
2013-07-04 07:00:00,58.8,50.2,29.44,West,270,12.3,12.3,73,0.00,,---,0.00,VWS V14.01,2013-07-04 12:00:00,
2013-07-04 07:05:00,58.8,50.2,29.44,West,270,12.3,12.3,73,0.00,,---,0.00,VWS V14.01,2013-07-04 12:05:00,
2013-07-04 07:10:00,59.2,50.2,29.44,West,270,12.3,12.3,72,0.00,,---,0.00,VWS V14.01,2013-07-04 12:10:00,
2013-07-04 07:15:00,59.4,50.3,29.41,West,270,12.3,12.3,72,0.00,,---,0.00,VWS V14.01,2013-07-04 12:15:00,
2013-07-04 07:20:00,59.7,50.3,29.41,West,270,12.3,12.3,71,0.00,,---,0.00,VWS V14.01,2013-07-04 12:20:00,
2013-07-04 07:25:00,60.1,51.0,29.41,West,270,12.3,12.3,72,0.00,,---,0.00,VWS V14.01,2013-07-04 12:25:00,
2013-07-04 07:30:00,60.4,50.6,29.44,West,270,12.3,12.3,70,0.00,,---,0.00,VWS V14.01,2013-07-04 12:30:00,
2013-07-04 07:35:00,60.8,50.6,29.44,West,270,12.3,12.3,69,0.00,,---,0.00,VWS V14.01,2013-07-04 12:35:00,
2013-07-04 07:40:00,61.2,50.1,29.44,West,270,12.3,12.3,67,0.00,,---,0.00,VWS V14.01,2013-07-04 12:40:00,
2013-07-04 07:45:00,61.9,49.6,29.44,West,270,12.3,12.3,64,0.00,,---,0.00,VWS V14.01,2013-07-04 12:45:00,
2013-07-04 07:50:00,62.2,49.5,29.44,West,270,12.3,12.3,63,0.00,,---,0.00,VWS V14.01,2013-07-04 12:50:00,
2013-07-04 07:55:00,62.6,49.0,29.44,West,270,12.3,12.3,61,0.00,,---,0.00,VWS V14.01,2013-07-04 12:55:00,
2013-07-04 08:00:00,63.7,49.1,29.44,West,270,12.3,12.3,59,0.00,,---,0.00,VWS V14.01,2013-07-04 13:00:00,
2013-07-04 08:05:00,64.4,48.8,29.44,West,270,12.3,12.3,57,0.00,,---,0.00,VWS V14.01,2013-07-04 13:05:00,
2013-07-04 08:10:00,64.9,48.4,29.44,West,270,12.3,12.3,55,0.00,,---,0.00,VWS V14.01,2013-07-04 13:10:00,
2013-07-04 08:15:00,65.7,47.1,29.41,West,270,12.3,12.3,51,0.00,,---,0.00,VWS V14.01,2013-07-04 13:15:00,
2013-07-04 08:20:00,66.2,46.5,29.41,West,270,12.3,12.3,49,0.00,,---,0.00,VWS V14.01,2013-07-04 13:20:00,
2013-07-04 08:25:00,66.9,46.6,29.41,West,270,12.3,12.3,48,0.00,,---,0.00,VWS V14.01,2013-07-04 13:25:00,
2013-07-04 08:30:00,67.6,46.7,29.44,West,270,12.3,12.3,47,0.00,,---,0.00,VWS V14.01,2013-07-04 13:30:00,
2013-07-04 08:35:00,68.4,46.2,29.44,West,270,12.3,12.3,45,0.00,,---,0.00,VWS V14.01,2013-07-04 13:35:00,
2013-07-04 08:40:00,68.9,46.1,29.44,West,270,12.3,12.3,44,0.00,,---,0.00,VWS V14.01,2013-07-04 13:40:00,
2013-07-04 08:46:00,69.4,46.0,29.44,West,270,12.3,12.3,43,0.00,,---,0.00,VWS V14.01,2013-07-04 13:46:00,
2013-07-04 08:51:00,70.2,46.0,29.44,West,270,12.3,12.3,42,0.00,,---,0.00,VWS V14.01,2013-07-04 13:51:00,
2013-07-04 08:56:00,70.9,45.4,29.44,West,270,12.3,12.3,40,0.00,,---,0.00,VWS V14.01,2013-07-04 13:56:00,
2013-07-04 09:01:00,72.3,45.3,29.44,West,270,12.3,12.3,38,0.00,,---,0.00,VWS V14.01,2013-07-04 14:01:00,
2013-07-04 09:06:00,73.4,44.1,29.44,West,270,12.3,12.3,35,0.00,,---,0.00,VWS V14.01,2013-07-04 14:06:00,
2013-07-04 09:11:00,74.1,43.2,29.44,West,270,12.3,12.3,33,0.00,,---,0.00,VWS V14.01,2013-07-04 14:11:00,
2013-07-04 09:16:00,75.2,44.9,29.44,West,270,12.3,12.3,34,0.00,,---,0.00,VWS V14.01,2013-07-04 14:16:00,
2013-07-04 09:21:00,75.9,44.0,29.44,West,270,12.3,12.3,32,0.00,,---,0.00,VWS V14.01,2013-07-04 14:21:00,
2013-07-04 09:26:00,76.6,43.8,29.44,West,270,12.3,12.3,31,0.00,,---,0.00,VWS V14.01,2013-07-04 14:26:00,
2013-07-04 09:31:00,77.0,44.1,29.44,West,270,12.3,12.3,31,0.00,,---,0.00,VWS V14.01,2013-07-04 14:31:00,
2013-07-04 09:36:00,77.5,43.7,29.44,West,270,12.3,12.3,30,0.00,,---,0.00,VWS V14.01,2013-07-04 14:36:00,
2013-07-04 09:41:00,77.5,42.8,29.44,West,270,12.3,12.3,29,0.00,,---,0.00,VWS V14.01,2013-07-04 14:41:00,
2013-07-04 09:46:00,78.1,42.4,29.44,West,270,12.3,12.3,28,0.00,,---,0.00,VWS V14.01,2013-07-04 14:46:00,
2013-07-04 09:51:00,77.9,41.3,29.44,West,270,12.3,12.3,27,0.00,,---,0.00,VWS V14.01,2013-07-04 14:51:00,
2013-07-04 09:56:00,78.6,41.9,29.44,West,270,12.3,12.3,27,0.00,,---,0.00,VWS V14.01,2013-07-04 14:56:00,
2013-07-04 10:01:00,78.6,41.9,29.44,West,270,12.3,12.3,27,0.00,,---,0.00,VWS V14.01,2013-07-04 15:01:00,
2013-07-04 10:06:00,79.2,39.3,29.44,West,270,12.3,12.3,24,0.00,,---,0.00,VWS V14.01,2013-07-04 15:06:00,
2013-07-04 10:11:00,80.1,39.0,29.44,West,270,12.3,12.3,23,0.00,,---,0.00,VWS V14.01,2013-07-04 15:11:00,
2013-07-04 10:16:00,81.0,39.7,29.44,West,270,12.3,12.3,23,0.00,,---,0.00,VWS V14.01,2013-07-04 15:16:00,
2013-07-04 10:21:00,81.9,39.3,29.44,West,270,12.3,12.3,22,0.00,,---,0.00,VWS V14.01,2013-07-04 15:21:00,
2013-07-04 10:26:00,82.0,39.5,29.44,West,270,12.3,12.3,22,0.00,,---,0.00,VWS V14.01,2013-07-04 15:26:00,
2013-07-04 10:31:00,82.0,38.3,29.41,West,270,12.3,12.3,21,0.00,,---,0.00,VWS V14.01,2013-07-04 15:31:00,
2013-07-04 10:36:00,82.4,38.6,29.41,West,270,12.3,12.3,21,0.00,,---,0.00,VWS V14.01,2013-07-04 15:36:00,
2013-07-04 10:41:00,82.6,37.5,29.41,West,270,12.3,12.3,20,0.00,,---,0.00,VWS V14.01,2013-07-04 15:41:00,
2013-07-04 10:46:00,82.6,37.5,29.44,West,270,12.3,12.3,20,0.00,,---,0.00,VWS V14.01,2013-07-04 15:46:00,
2013-07-04 10:51:00,83.1,37.9,29.44,West,270,12.3,12.3,20,0.00,,---,0.00,VWS V14.01,2013-07-04 15:51:00,
2013-07-04 10:56:00,83.5,38.2,29.44,West,270,12.3,12.3,20,0.00,,---,0.00,VWS V14.01,2013-07-04 15:56:00,
2013-07-04 11:01:00,83.7,37.1,29.44,West,270,12.3,12.3,19,0.00,,---,0.00,VWS V14.01,2013-07-04 16:01:00,
2013-07-04 11:06:00,84.4,37.7,29.44,West,270,12.3,12.3,19,0.00,,---,0.00,VWS V14.01,2013-07-04 16:06:00,
2013-07-04 11:12:00,85.3,38.4,29.44,West,270,12.3,12.3,19,0.00,,---,0.00,VWS V14.01,2013-07-04 16:12:00,
2013-07-04 11:17:00,85.8,38.8,29.41,West,270,12.3,12.3,19,0.00,,---,0.00,VWS V14.01,2013-07-04 16:17:00,
2013-07-04 11:22:00,86.0,37.6,29.41,West,270,12.3,12.3,18,0.00,,---,0.00,VWS V14.01,2013-07-04 16:22:00,
2013-07-04 11:27:00,84.9,38.1,29.41,West,270,12.3,12.3,19,0.00,,---,0.00,VWS V14.01,2013-07-04 16:27:00,
2013-07-04 11:32:00,86.2,37.8,29.44,West,270,12.3,12.3,18,0.00,,---,0.00,VWS V14.01,2013-07-04 16:32:00,
2013-07-04 11:37:00,87.1,38.5,29.44,West,270,12.3,12.3,18,0.00,,---,0.00,VWS V14.01,2013-07-04 16:37:00,
2013-07-04 11:39:00,87.1,38.5,29.44,West,270,12.3,12.3,18,0.00,,---,0.00,VWS V14.01,2013-07-04 16:39:00,
2013-07-04 11:44:00,86.4,37.9,29.44,West,270,12.3,12.3,18,0.00,,---,0.00,VWS V14.01,2013-07-04 16:44:00,
2013-07-04 11:49:00,85.1,38.2,29.41,West,270,12.3,12.3,19,0.00,,---,0.00,VWS V14.01,2013-07-04 16:49:00,
2013-07-04 11:54:00,85.8,37.5,29.41,West,270,12.3,12.3,18,0.00,,---,0.00,VWS V14.01,2013-07-04 16:54:00,
2013-07-04 11:59:00,86.2,37.8,29.41,West,270,12.3,12.3,18,0.00,,---,0.00,VWS V14.01,2013-07-04 16:59:00,
2013-07-04 12:04:00,86.2,37.8,29.44,West,270,12.3,12.3,18,0.00,,---,0.00,VWS V14.01,2013-07-04 17:04:00,
2013-07-04 12:09:00,87.6,38.9,29.44,West,270,12.3,12.3,18,0.00,,---,0.00,VWS V14.01,2013-07-04 17:09:00,
2013-07-04 12:14:00,88.2,39.4,29.44,West,270,12.3,12.3,18,0.00,,---,0.00,VWS V14.01,2013-07-04 17:14:00,
2013-07-04 12:19:00,88.3,34.9,29.44,West,270,12.3,12.3,15,0.00,,---,0.00,VWS V14.01,2013-07-04 17:19:00,
2013-07-04 12:24:00,86.0,29.5,29.44,West,270,12.3,12.3,13,0.00,,---,0.00,VWS V14.01,2013-07-04 17:24:00,
2013-07-04 12:29:00,85.8,29.4,29.44,West,270,12.3,12.3,13,0.00,,---,0.00,VWS V14.01,2013-07-04 17:29:00,
2013-07-04 12:34:00,86.2,29.6,29.44,West,270,12.3,12.3,13,0.00,,---,0.00,VWS V14.01,2013-07-04 17:34:00,
2013-07-04 12:39:00,87.1,30.3,29.44,West,270,12.3,12.3,13,0.00,,---,0.00,VWS V14.01,2013-07-04 17:39:00,
2013-07-04 12:44:00,88.3,31.3,29.41,West,270,12.3,12.3,13,0.00,,---,0.00,VWS V14.01,2013-07-04 17:44:00,
2013-07-04 12:49:00,88.5,31.5,29.41,West,270,12.3,12.3,13,0.00,,---,0.00,VWS V14.01,2013-07-04 17:49:00,
2013-07-04 12:54:00,88.3,31.3,29.41,West,270,12.3,12.3,13,0.00,,---,0.00,VWS V14.01,2013-07-04 17:54:00,
2013-07-04 12:59:00,88.7,31.6,29.41,West,270,12.3,12.3,13,0.00,,---,0.00,VWS V14.01,2013-07-04 17:59:00,
2013-07-04 13:04:00,89.8,30.5,29.41,West,270,12.3,12.3,12,0.00,,---,0.00,VWS V14.01,2013-07-04 18:04:00,
2013-07-04 13:09:00,88.9,31.7,29.41,West,270,12.3,12.3,13,0.00,,---,0.00,VWS V14.01,2013-07-04 18:09:00,
2013-07-04 13:14:00,88.0,31.0,29.41,West,270,12.3,12.3,13,0.00,,---,0.00,VWS V14.01,2013-07-04 18:14:00,
2013-07-04 13:19:00,88.0,31.0,29.41,West,270,12.3,12.3,13,0.00,,---,0.00,VWS V14.01,2013-07-04 18:19:00,
2013-07-04 13:24:00,87.3,30.5,29.41,West,270,12.3,12.3,13,0.00,,---,0.00,VWS V14.01,2013-07-04 18:24:00,
2013-07-04 13:30:00,87.6,30.8,29.38,West,270,12.3,12.3,13,0.00,,---,0.00,VWS V14.01,2013-07-04 18:30:00,
2013-07-04 13:35:00,87.4,30.6,29.38,West,270,12.3,12.3,13,0.00,,---,0.00,VWS V14.01,2013-07-04 18:35:00,
2013-07-04 13:40:00,87.4,30.6,29.38,West,270,12.3,12.3,13,0.00,,---,0.00,VWS V14.01,2013-07-04 18:40:00,
2013-07-04 13:45:00,88.2,31.2,29.38,West,270,12.3,12.3,13,0.00,,---,0.00,VWS V14.01,2013-07-04 18:45:00,
2013-07-04 13:50:00,88.3,31.3,29.38,West,270,12.3,12.3,13,0.00,,---,0.00,VWS V14.01,2013-07-04 18:50:00,
2013-07-04 13:55:00,88.7,31.6,29.38,West,270,12.3,12.3,13,0.00,,---,0.00,VWS V14.01,2013-07-04 18:55:00,
2013-07-04 14:00:00,89.8,30.5,29.38,West,270,12.3,12.3,12,0.00,,---,0.00,VWS V14.01,2013-07-04 19:00:00,
2013-07-04 14:05:00,89.2,32.0,29.38,West,270,12.3,12.3,13,0.00,,---,0.00,VWS V14.01,2013-07-04 19:05:00,
2013-07-04 14:10:00,90.5,31.0,29.38,West,270,12.3,12.3,12,0.00,,---,0.00,VWS V14.01,2013-07-04 19:10:00,
2013-07-04 14:15:00,90.7,31.2,29.38,West,270,12.3,12.3,12,0.00,,---,0.00,VWS V14.01,2013-07-04 19:15:00,
2013-07-04 14:20:00,91.2,31.6,29.38,West,270,12.3,12.3,12,0.00,,---,0.00,VWS V14.01,2013-07-04 19:20:00,
2013-07-04 14:25:00,91.6,31.9,29.38,West,270,12.3,12.3,12,0.00,,---,0.00,VWS V14.01,2013-07-04 19:25:00,
2013-07-04 14:30:00,91.4,31.7,29.35,West,270,12.3,12.3,12,0.00,,---,0.00,VWS V14.01,2013-07-04 19:30:00,
2013-07-04 14:35:00,91.2,31.6,29.35,West,270,12.3,12.3,12,0.00,,---,0.00,VWS V14.01,2013-07-04 19:35:00,
2013-07-04 14:40:00,91.0,31.4,29.35,West,270,12.3,12.3,12,0.00,,---,0.00,VWS V14.01,2013-07-04 19:40:00,
2013-07-04 14:45:00,92.1,32.3,29.38,West,270,12.3,12.3,12,0.00,,---,0.00,VWS V14.01,2013-07-04 19:45:00,
2013-07-04 14:50:00,93.0,33.0,29.38,West,270,12.3,12.3,12,0.00,,---,0.00,VWS V14.01,2013-07-04 19:50:00,
2013-07-04 14:55:00,93.4,31.1,29.38,West,270,12.3,12.3,11,0.00,,---,0.00,VWS V14.01,2013-07-04 19:55:00,
2013-07-04 15:00:00,91.8,32.0,29.38,West,270,12.3,12.3,12,0.00,,---,0.00,VWS V14.01,2013-07-04 20:00:00,
2013-07-04 15:05:00,90.5,31.0,29.38,West,270,12.3,12.3,12,0.00,,---,0.00,VWS V14.01,2013-07-04 20:05:00,
2013-07-04 15:10:00,90.3,30.9,29.38,West,270,12.3,12.3,12,0.00,,---,0.00,VWS V14.01,2013-07-04 20:10:00,
2013-07-04 15:15:00,89.6,30.3,29.38,West,270,12.3,12.3,12,0.00,,---,0.00,VWS V14.01,2013-07-04 20:15:00,
2013-07-04 15:20:00,89.6,30.3,29.38,West,270,12.3,12.3,12,0.00,,---,0.00,VWS V14.01,2013-07-04 20:20:00,
2013-07-04 15:25:00,89.6,30.3,29.38,West,270,12.3,12.3,12,0.00,,---,0.00,VWS V14.01,2013-07-04 20:25:00,
2013-07-04 15:30:00,90.7,31.2,29.38,West,270,12.3,12.3,12,0.00,,---,0.00,VWS V14.01,2013-07-04 20:30:00,
2013-07-04 15:35:00,91.0,31.4,29.38,West,270,12.3,12.3,12,0.00,,---,0.00,VWS V14.01,2013-07-04 20:35:00,
2013-07-04 15:40:00,90.9,31.3,29.38,West,270,12.3,12.3,12,0.00,,---,0.00,VWS V14.01,2013-07-04 20:40:00,
2013-07-04 15:46:00,90.3,30.9,29.38,West,270,12.3,12.3,12,0.00,,---,0.00,VWS V14.01,2013-07-04 20:46:00,
2013-07-04 15:51:00,90.1,30.7,29.38,West,270,12.3,12.3,12,0.00,,---,0.00,VWS V14.01,2013-07-04 20:51:00,
2013-07-04 15:56:00,90.0,30.6,29.38,West,270,12.3,12.3,12,0.00,,---,0.00,VWS V14.01,2013-07-04 20:56:00,
2013-07-04 16:01:00,89.6,30.3,29.35,West,270,12.3,12.3,12,0.00,,---,0.00,VWS V14.01,2013-07-04 21:01:00,
2013-07-04 16:06:00,90.3,30.9,29.35,West,270,12.3,12.3,12,0.00,,---,0.00,VWS V14.01,2013-07-04 21:06:00,
2013-07-04 16:11:00,90.7,31.2,29.35,West,270,12.3,12.3,12,0.00,,---,0.00,VWS V14.01,2013-07-04 21:11:00,
2013-07-04 16:16:00,91.8,32.0,29.35,West,270,12.3,12.3,12,0.00,,---,0.00,VWS V14.01,2013-07-04 21:16:00,
2013-07-04 16:21:00,91.8,32.0,29.35,West,270,12.3,12.3,12,0.00,,---,0.00,VWS V14.01,2013-07-04 21:21:00,
2013-07-04 16:26:00,92.5,32.5,29.35,West,270,12.3,12.3,12,0.00,,---,0.00,VWS V14.01,2013-07-04 21:26:00,
2013-07-04 16:31:00,90.9,31.3,29.35,West,270,12.3,12.3,12,0.00,,---,0.00,VWS V14.01,2013-07-04 21:31:00,
2013-07-04 16:36:00,89.8,30.5,29.35,West,270,12.3,12.3,12,0.00,,---,0.00,VWS V14.01,2013-07-04 21:36:00,
2013-07-04 16:41:00,89.1,31.9,29.35,West,270,12.3,12.3,13,0.00,,---,0.00,VWS V14.01,2013-07-04 21:41:00,
2013-07-04 16:46:00,88.5,31.5,29.35,West,270,12.3,12.3,13,0.00,,---,0.00,VWS V14.01,2013-07-04 21:46:00,
2013-07-04 16:51:00,87.6,30.8,29.35,West,270,12.3,12.3,13,0.00,,---,0.00,VWS V14.01,2013-07-04 21:51:00,
2013-07-04 16:56:00,87.3,30.5,29.35,West,270,12.3,12.3,13,0.00,,---,0.00,VWS V14.01,2013-07-04 21:56:00,
2013-07-04 17:01:00,87.1,30.3,29.35,West,270,12.3,12.3,13,0.00,,---,0.00,VWS V14.01,2013-07-04 22:01:00,
2013-07-04 17:06:00,86.7,30.0,29.35,West,270,12.3,12.3,13,0.00,,---,0.00,VWS V14.01,2013-07-04 22:06:00,
2013-07-04 17:11:00,86.5,29.9,29.35,West,270,12.3,12.3,13,0.00,,---,0.00,VWS V14.01,2013-07-04 22:11:00,
2013-07-04 17:16:00,86.4,29.8,29.35,West,270,12.3,12.3,13,0.00,,---,0.00,VWS V14.01,2013-07-04 22:16:00,
2013-07-04 17:21:00,86.7,30.0,29.35,West,270,12.3,12.3,13,0.00,,---,0.00,VWS V14.01,2013-07-04 22:21:00,
2013-07-04 17:26:00,87.1,30.3,29.35,West,270,12.3,12.3,13,0.00,,---,0.00,VWS V14.01,2013-07-04 22:26:00,
2013-07-04 17:31:00,87.3,30.5,29.35,West,270,12.3,12.3,13,0.00,,---,0.00,VWS V14.01,2013-07-04 22:31:00,
2013-07-04 17:36:00,88.0,31.0,29.35,West,270,12.3,12.3,13,0.00,,---,0.00,VWS V14.01,2013-07-04 22:36:00,
2013-07-04 17:41:00,88.3,31.3,29.35,West,270,12.3,12.3,13,0.00,,---,0.00,VWS V14.01,2013-07-04 22:41:00,
2013-07-04 17:46:00,88.7,31.6,29.35,West,270,12.3,12.3,13,0.00,,---,0.00,VWS V14.01,2013-07-04 22:46:00,
2013-07-04 17:52:00,88.7,31.6,29.35,West,270,12.3,12.3,13,0.00,,---,0.00,VWS V14.01,2013-07-04 22:52:00,
2013-07-04 17:57:00,88.5,31.5,29.35,West,270,12.3,12.3,13,0.00,,---,0.00,VWS V14.01,2013-07-04 22:57:00,
2013-07-04 18:02:00,88.2,31.2,29.35,West,270,12.3,12.3,13,0.00,,---,0.00,VWS V14.01,2013-07-04 23:02:00,
2013-07-04 18:07:00,88.3,31.3,29.35,West,270,12.3,12.3,13,0.00,,---,0.00,VWS V14.01,2013-07-04 23:07:00,
2013-07-04 18:12:00,88.5,31.5,29.35,West,270,12.3,12.3,13,0.00,,---,0.00,VWS V14.01,2013-07-04 23:12:00,
2013-07-04 18:17:00,88.9,31.7,29.35,West,270,12.3,12.3,13,0.00,,---,0.00,VWS V14.01,2013-07-04 23:17:00,
2013-07-04 18:22:00,88.9,31.7,29.35,West,270,12.3,12.3,13,0.00,,---,0.00,VWS V14.01,2013-07-04 23:22:00,
2013-07-04 18:27:00,89.1,31.9,29.35,West,270,12.3,12.3,13,0.00,,---,0.00,VWS V14.01,2013-07-04 23:27:00,
2013-07-04 18:32:00,89.1,31.9,29.35,West,270,12.3,12.3,13,0.00,,---,0.00,VWS V14.01,2013-07-04 23:32:00,
2013-07-04 18:37:00,88.9,31.7,29.35,West,270,12.3,12.3,13,0.00,,---,0.00,VWS V14.01,2013-07-04 23:37:00,
2013-07-04 18:42:00,88.9,31.7,29.35,West,270,12.3,12.3,13,0.00,,---,0.00,VWS V14.01,2013-07-04 23:42:00,
2013-07-04 18:47:00,88.5,31.5,29.35,West,270,12.3,12.3,13,0.00,,---,0.00,VWS V14.01,2013-07-04 23:47:00,
2013-07-04 18:52:00,88.3,31.3,29.35,West,270,12.3,12.3,13,0.00,,---,0.00,VWS V14.01,2013-07-04 23:52:00,
2013-07-04 18:57:00,88.2,31.2,29.35,West,270,12.3,12.3,13,0.00,,---,0.00,VWS V14.01,2013-07-04 23:57:00,
2013-07-04 19:02:00,88.2,31.2,29.35,West,270,12.3,12.3,13,0.00,,---,0.00,VWS V14.01,2013-07-05 00:02:00,
2013-07-04 19:07:00,88.0,31.0,29.35,West,270,12.3,12.3,13,0.00,,---,0.00,VWS V14.01,2013-07-05 00:07:00,
2013-07-04 19:12:00,87.6,30.8,29.35,West,270,12.3,12.3,13,0.00,,---,0.00,VWS V14.01,2013-07-05 00:12:00,
2013-07-04 19:17:00,87.6,30.8,29.35,West,270,12.3,12.3,13,0.00,,---,0.00,VWS V14.01,2013-07-05 00:17:00,
2013-07-04 19:22:00,87.3,30.5,29.35,West,270,12.3,12.3,13,0.00,,---,0.00,VWS V14.01,2013-07-05 00:22:00,
2013-07-04 19:27:00,87.1,30.3,29.35,West,270,12.3,12.3,13,0.00,,---,0.00,VWS V14.01,2013-07-05 00:27:00,
2013-07-04 19:32:00,86.7,30.0,29.35,West,270,12.3,12.3,13,0.00,,---,0.00,VWS V14.01,2013-07-05 00:32:00,
2013-07-04 19:37:00,86.2,29.6,29.35,West,270,12.3,12.3,13,0.00,,---,0.00,VWS V14.01,2013-07-05 00:37:00,
2013-07-04 19:42:00,85.6,29.2,29.35,West,270,12.3,12.3,13,0.00,,---,0.00,VWS V14.01,2013-07-05 00:42:00,
2013-07-04 19:47:00,85.3,28.9,29.35,West,270,12.3,12.3,13,0.00,,---,0.00,VWS V14.01,2013-07-05 00:47:00,
2013-07-04 19:52:00,84.6,28.4,29.35,West,270,12.3,12.3,13,0.00,,---,0.00,VWS V14.01,2013-07-05 00:52:00,
2013-07-04 19:57:00,83.8,29.6,29.35,West,270,12.3,12.3,14,0.00,,---,0.00,VWS V14.01,2013-07-05 00:57:00,
2013-07-04 20:02:00,83.3,29.2,29.35,West,270,12.3,12.3,14,0.00,,---,0.00,VWS V14.01,2013-07-05 01:02:00,
2013-07-04 20:07:00,82.6,31.9,29.35,West,270,12.3,12.3,16,0.00,,---,0.00,VWS V14.01,2013-07-05 01:07:00,
2013-07-04 20:12:00,82.0,33.0,29.35,West,270,12.3,12.3,17,0.00,,---,0.00,VWS V14.01,2013-07-05 01:12:00,
2013-07-04 20:18:00,81.5,32.5,29.35,West,270,12.3,12.3,17,0.00,,---,0.00,VWS V14.01,2013-07-05 01:18:00,
2013-07-04 20:23:00,81.3,32.4,29.35,West,270,12.3,12.3,17,0.00,,---,0.00,VWS V14.01,2013-07-05 01:23:00,
2013-07-04 20:28:00,81.0,32.1,29.35,West,270,12.3,12.3,17,0.00,,---,0.00,VWS V14.01,2013-07-05 01:28:00,
2013-07-04 20:33:00,80.8,32.0,29.35,West,270,12.3,12.3,17,0.00,,---,0.00,VWS V14.01,2013-07-05 01:33:00,
2013-07-04 20:38:00,80.4,31.7,29.35,West,270,12.3,12.3,17,0.00,,---,0.00,VWS V14.01,2013-07-05 01:38:00,
2013-07-04 20:43:00,80.1,31.4,29.35,West,270,12.3,12.3,17,0.00,,---,0.00,VWS V14.01,2013-07-05 01:43:00,
2013-07-04 20:48:00,79.9,31.2,29.35,West,270,12.3,12.3,17,0.00,,---,0.00,VWS V14.01,2013-07-05 01:48:00,
2013-07-04 20:53:00,79.7,31.1,29.35,West,270,12.3,12.3,17,0.00,,---,0.00,VWS V14.01,2013-07-05 01:53:00,
2013-07-04 20:58:00,79.5,30.9,29.35,West,270,12.3,12.3,17,0.00,,---,0.00,VWS V14.01,2013-07-05 01:58:00,
2013-07-04 21:03:00,79.3,30.8,29.35,West,270,12.3,12.3,17,0.00,,---,0.00,VWS V14.01,2013-07-05 02:03:00,
2013-07-04 21:08:00,79.2,30.6,29.35,West,270,12.3,12.3,17,0.00,,---,0.00,VWS V14.01,2013-07-05 02:08:00,
2013-07-04 21:13:00,79.0,30.5,29.35,West,270,12.3,12.3,17,0.00,,---,0.00,VWS V14.01,2013-07-05 02:13:00,
2013-07-04 21:18:00,78.8,34.4,29.38,West,270,12.3,12.3,20,0.00,,---,0.00,VWS V14.01,2013-07-05 02:18:00,
2013-07-04 21:23:00,78.4,34.1,29.38,West,270,12.3,12.3,20,0.00,,---,0.00,VWS V14.01,2013-07-05 02:23:00,
2013-07-04 21:28:00,78.1,33.8,29.38,West,270,12.3,12.3,20,0.00,,---,0.00,VWS V14.01,2013-07-05 02:28:00,
2013-07-04 21:33:00,77.7,33.5,29.38,West,270,12.3,12.3,20,0.00,,---,0.00,VWS V14.01,2013-07-05 02:33:00,
2013-07-04 21:38:00,77.4,33.2,29.38,West,270,12.3,12.3,20,0.00,,---,0.00,VWS V14.01,2013-07-05 02:38:00,
2013-07-04 21:43:00,77.0,32.9,29.38,West,270,12.3,12.3,20,0.00,,---,0.00,VWS V14.01,2013-07-05 02:43:00,
2013-07-04 21:48:00,76.5,33.7,29.38,West,270,12.3,12.3,21,0.00,,---,0.00,VWS V14.01,2013-07-05 02:48:00,
2013-07-04 21:53:00,76.3,33.5,29.38,West,270,12.3,12.3,21,0.00,,---,0.00,VWS V14.01,2013-07-05 02:53:00,
2013-07-04 21:58:00,76.6,33.8,29.38,West,270,12.3,12.3,21,0.00,,---,0.00,VWS V14.01,2013-07-05 02:58:00,
2013-07-04 22:03:00,77.0,32.9,29.38,West,270,12.3,12.3,20,0.00,,---,0.00,VWS V14.01,2013-07-05 03:03:00,
2013-07-04 22:04:00,73.8,33.7,29.41,West,270,12.3,12.3,23,0.00,,---,0.00,VWS V14.01,2013-07-05 03:04:00,
2013-07-04 22:05:00,73.8,33.7,29.41,West,270,12.3,12.3,23,0.00,,---,0.00,VWS V14.01,2013-07-05 03:05:00,
2013-07-04 22:06:00,73.8,33.7,29.41,West,270,12.3,12.3,23,0.00,,---,0.00,VWS V14.01,2013-07-05 03:06:00,
2013-07-04 22:07:00,73.2,34.3,29.41,West,270,12.3,12.3,24,0.00,,---,0.00,VWS V14.01,2013-07-05 03:07:00,
2013-07-04 22:08:00,77.0,32.9,29.38,West,270,12.3,12.3,20,0.00,,---,0.00,VWS V14.01,2013-07-05 03:08:00,
2013-07-04 22:09:00,72.7,33.8,29.41,West,270,12.3,12.3,24,0.00,,---,0.00,VWS V14.01,2013-07-05 03:09:00,
2013-07-04 22:10:00,72.7,33.8,29.41,West,270,12.3,12.3,24,0.00,,---,0.00,VWS V14.01,2013-07-05 03:10:00,
2013-07-04 22:11:00,72.7,34.9,29.41,West,270,12.3,12.3,25,0.00,,---,0.00,VWS V14.01,2013-07-05 03:11:00,
2013-07-04 22:12:00,72.7,35.8,29.41,West,270,12.3,12.3,26,0.00,,---,0.00,VWS V14.01,2013-07-05 03:12:00,
2013-07-04 22:13:00,77.0,32.9,29.38,West,270,12.3,12.3,20,0.00,,---,0.00,VWS V14.01,2013-07-05 03:13:00,
2013-07-04 22:14:00,72.5,35.7,29.41,West,270,12.3,12.3,26,0.00,,---,0.00,VWS V14.01,2013-07-05 03:14:00,
2013-07-04 22:15:00,72.5,35.7,29.41,West,270,12.3,12.3,26,0.00,,---,0.00,VWS V14.01,2013-07-05 03:15:00,
2013-07-04 22:16:00,72.3,35.5,29.41,West,270,12.3,12.3,26,0.00,,---,0.00,VWS V14.01,2013-07-05 03:16:00,
2013-07-04 22:17:00,72.1,36.3,29.41,West,270,12.3,12.3,27,0.00,,---,0.00,VWS V14.01,2013-07-05 03:17:00,
2013-07-04 22:18:00,76.8,34.0,29.38,West,270,12.3,12.3,21,0.00,,---,0.00,VWS V14.01,2013-07-05 03:18:00,
2013-07-04 22:19:00,72.0,35.2,29.41,West,270,12.3,12.3,26,0.00,,---,0.00,VWS V14.01,2013-07-05 03:19:00,
2013-07-04 22:20:00,72.0,35.2,29.41,West,270,12.3,12.3,26,0.00,,---,0.00,VWS V14.01,2013-07-05 03:20:00,
2013-07-04 22:21:00,71.8,35.1,29.41,West,270,12.3,12.3,26,0.00,,---,0.00,VWS V14.01,2013-07-05 03:21:00,
2013-07-04 22:22:00,71.8,35.1,29.41,West,270,12.3,12.3,26,0.00,,---,0.00,VWS V14.01,2013-07-05 03:22:00,
2013-07-04 22:23:00,76.8,34.0,29.38,West,270,12.3,12.3,21,0.00,,---,0.00,VWS V14.01,2013-07-05 03:23:00,
2013-07-04 22:24:00,71.6,34.9,29.41,West,270,12.3,12.3,26,0.00,,---,0.00,VWS V14.01,2013-07-05 03:24:00,
2013-07-04 22:25:00,71.6,34.9,29.41,West,270,12.3,12.3,26,0.00,,---,0.00,VWS V14.01,2013-07-05 03:25:00,
2013-07-04 22:26:00,71.4,34.8,29.41,West,270,12.3,12.3,26,0.00,,---,0.00,VWS V14.01,2013-07-05 03:26:00,
2013-07-04 22:27:00,71.4,34.8,29.41,West,270,12.3,12.3,26,0.00,,---,0.00,VWS V14.01,2013-07-05 03:27:00,
2013-07-04 22:28:00,76.6,33.8,29.38,West,270,12.3,12.3,21,0.00,,---,0.00,VWS V14.01,2013-07-05 03:28:00,
2013-07-04 22:29:00,71.2,35.6,29.41,West,270,12.3,12.3,27,0.00,,---,0.00,VWS V14.01,2013-07-05 03:29:00,
2013-07-04 22:30:00,71.2,35.6,29.41,West,270,12.3,12.3,27,0.00,,---,0.00,VWS V14.01,2013-07-05 03:30:00,
2013-07-04 22:31:00,71.1,35.4,29.41,West,270,12.3,12.3,27,0.00,,---,0.00,VWS V14.01,2013-07-05 03:31:00,
2013-07-04 22:32:00,71.1,35.4,29.38,West,270,12.3,12.3,27,0.00,,---,0.00,VWS V14.01,2013-07-05 03:32:00,
2013-07-04 22:33:00,76.5,33.7,29.38,West,270,12.3,12.3,21,0.00,,---,0.00,VWS V14.01,2013-07-05 03:33:00,
2013-07-04 22:34:00,70.9,35.3,29.38,West,270,12.3,12.3,27,0.00,,---,0.00,VWS V14.01,2013-07-05 03:34:00,
2013-07-04 22:35:00,70.9,35.3,29.38,West,270,12.3,12.3,27,0.00,,---,0.00,VWS V14.01,2013-07-05 03:35:00,
2013-07-04 22:37:00,70.9,35.3,29.38,West,270,12.3,12.3,27,0.00,,---,0.00,VWS V14.01,2013-07-05 03:37:00,
2013-07-04 22:38:00,76.1,33.4,29.38,West,270,12.3,12.3,21,0.00,,---,0.00,VWS V14.01,2013-07-05 03:38:00,
2013-07-04 22:39:00,70.7,37.8,29.38,West,270,12.3,12.3,30,0.00,,---,0.00,VWS V14.01,2013-07-05 03:39:00,
2013-07-04 22:40:00,70.7,38.6,29.38,West,270,12.3,12.3,31,0.00,,---,0.00,VWS V14.01,2013-07-05 03:40:00,
2013-07-04 22:41:00,70.7,38.6,29.38,West,270,12.3,12.3,31,0.00,,---,0.00,VWS V14.01,2013-07-05 03:41:00,
2013-07-04 22:42:00,70.7,37.8,29.38,West,270,12.3,12.3,30,0.00,,---,0.00,VWS V14.01,2013-07-05 03:42:00,
2013-07-04 22:43:00,75.6,34.1,29.38,West,270,12.3,12.3,22,0.00,,---,0.00,VWS V14.01,2013-07-05 03:43:00,
2013-07-04 22:44:00,70.7,36.9,29.38,West,270,12.3,12.3,29,0.00,,---,0.00,VWS V14.01,2013-07-05 03:44:00,
2013-07-04 22:45:00,70.7,36.9,29.38,West,270,12.3,12.3,29,0.00,,---,0.00,VWS V14.01,2013-07-05 03:45:00,
2013-07-04 22:46:00,70.7,36.9,29.38,West,270,12.3,12.3,29,0.00,,---,0.00,VWS V14.01,2013-07-05 03:46:00,
2013-07-04 22:47:00,70.5,36.8,29.38,West,270,12.3,12.3,29,0.00,,---,0.00,VWS V14.01,2013-07-05 03:47:00,
2013-07-04 22:48:00,75.0,33.6,29.38,West,270,12.3,12.3,22,0.00,,---,0.00,VWS V14.01,2013-07-05 03:48:00,
2013-07-04 22:49:00,70.5,37.6,29.38,West,270,12.3,12.3,30,0.00,,---,0.00,VWS V14.01,2013-07-05 03:49:00,
2013-07-04 22:50:00,70.5,37.6,29.38,West,270,12.3,12.3,30,0.00,,---,0.00,VWS V14.01,2013-07-05 03:50:00,
2013-07-04 22:52:00,70.5,38.5,29.38,West,270,12.3,12.3,31,0.00,,---,0.00,VWS V14.01,2013-07-05 03:52:00,
2013-07-04 22:54:00,74.5,33.2,29.38,West,270,12.3,12.3,22,0.00,,---,0.00,VWS V14.01,2013-07-05 03:54:00,
2013-07-04 22:55:00,70.5,37.6,29.38,West,270,12.3,12.3,30,0.00,,---,0.00,VWS V14.01,2013-07-05 03:55:00,
2013-07-04 22:56:00,70.3,36.6,29.38,West,270,12.3,12.3,29,0.00,,---,0.00,VWS V14.01,2013-07-05 03:56:00,
2013-07-04 22:58:00,70.3,36.6,29.38,West,270,12.3,12.3,29,0.00,,---,0.00,VWS V14.01,2013-07-05 03:58:00,
2013-07-04 22:59:00,74.1,34.0,29.38,West,270,12.3,12.3,23,0.00,,---,0.00,VWS V14.01,2013-07-05 03:59:00,
2013-07-04 23:00:00,70.3,36.6,29.38,West,270,12.3,12.3,29,0.00,,---,0.00,VWS V14.01,2013-07-05 04:00:00,
2013-07-04 23:01:00,70.3,36.6,29.38,West,270,12.3,12.3,29,0.00,,---,0.00,VWS V14.01,2013-07-05 04:01:00,
2013-07-04 23:02:00,70.3,36.6,29.38,West,270,12.3,12.3,29,0.00,,---,0.00,VWS V14.01,2013-07-05 04:02:00,
2013-07-04 23:03:00,70.3,37.5,29.41,West,270,12.3,12.3,30,0.00,,---,0.00,VWS V14.01,2013-07-05 04:03:00,
2013-07-04 23:04:00,70.2,37.3,29.41,West,270,12.3,12.3,30,0.00,,---,0.00,VWS V14.01,2013-07-05 04:04:00,
2013-07-04 23:05:00,70.2,37.3,29.41,West,270,12.3,12.3,30,0.00,,---,0.00,VWS V14.01,2013-07-05 04:05:00,
2013-07-04 23:06:00,70.2,37.3,29.41,West,270,12.3,12.3,30,0.00,,---,0.00,VWS V14.01,2013-07-05 04:06:00,
2013-07-04 23:07:00,70.0,37.2,29.41,West,270,12.3,12.3,30,0.00,,---,0.00,VWS V14.01,2013-07-05 04:07:00,
2013-07-04 23:09:00,70.0,37.2,29.41,West,270,12.3,12.3,30,0.00,,---,0.00,VWS V14.01,2013-07-05 04:09:00,
2013-07-04 23:10:00,70.0,37.2,29.41,West,270,12.3,12.3,30,0.00,,---,0.00,VWS V14.01,2013-07-05 04:10:00,
2013-07-04 23:11:00,70.0,37.2,29.41,West,270,12.3,12.3,30,0.00,,---,0.00,VWS V14.01,2013-07-05 04:11:00,
2013-07-04 23:12:00,69.8,37.0,29.41,West,270,12.3,12.3,30,0.00,,---,0.00,VWS V14.01,2013-07-05 04:12:00,
2013-07-04 23:13:00,69.8,37.0,29.41,West,270,12.3,12.3,30,0.00,,---,0.00,VWS V14.01,2013-07-05 04:13:00,
2013-07-04 23:15:00,69.6,37.7,29.41,West,270,12.3,12.3,31,0.00,,---,0.00,VWS V14.01,2013-07-05 04:15:00,
2013-07-04 23:16:00,69.6,37.7,29.41,West,270,12.3,12.3,31,0.00,,---,0.00,VWS V14.01,2013-07-05 04:16:00,
2013-07-04 23:17:00,69.6,36.8,29.41,West,270,12.3,12.3,30,0.00,,---,0.00,VWS V14.01,2013-07-05 04:17:00,
2013-07-04 23:18:00,69.4,36.7,29.41,West,270,12.3,12.3,30,0.00,,---,0.00,VWS V14.01,2013-07-05 04:18:00,
2013-07-04 23:19:00,69.4,37.5,29.41,West,270,12.3,12.3,31,0.00,,---,0.00,VWS V14.01,2013-07-05 04:19:00,
2013-07-04 23:20:00,69.4,37.5,29.41,West,270,12.3,12.3,31,0.00,,---,0.00,VWS V14.01,2013-07-05 04:20:00,
2013-07-04 23:22:00,69.4,38.3,29.41,West,270,12.3,12.3,32,0.00,,---,0.00,VWS V14.01,2013-07-05 04:22:00,
2013-07-04 23:23:00,69.3,38.2,29.41,West,270,12.3,12.3,32,0.00,,---,0.00,VWS V14.01,2013-07-05 04:23:00,
2013-07-04 23:24:00,69.3,38.2,29.41,West,270,12.3,12.3,32,0.00,,---,0.00,VWS V14.01,2013-07-05 04:24:00,
2013-07-04 23:25:00,69.3,37.4,29.41,West,270,12.3,12.3,31,0.00,,---,0.00,VWS V14.01,2013-07-05 04:25:00,
2013-07-04 23:30:00,69.3,38.2,29.41,West,270,12.3,12.3,32,0.00,,---,0.00,VWS V14.01,2013-07-05 04:30:00,
2013-07-04 23:31:00,69.1,38.0,29.41,West,270,12.3,12.3,32,0.00,,---,0.00,VWS V14.01,2013-07-05 04:31:00,
2013-07-04 23:34:00,68.9,37.8,29.41,West,270,12.3,12.3,32,0.00,,---,0.00,VWS V14.01,2013-07-05 04:34:00,
2013-07-04 23:35:00,68.9,37.8,29.41,West,270,12.3,12.3,32,0.00,,---,0.00,VWS V14.01,2013-07-05 04:35:00,